Terminal Aerodrome Forecast
Issued by NWS Quad Cities IA IL

Home | Current Version | Previous Version | Text Only | Print | Product List | Glossary On
Versions: 1 2 3 4 5 6 7 8 9 10 11 12 13 14 15 16 17 18 19
000
FTUS43 KDVN 232300
TAFMLI
TAF
KMLI 232326Z 2400/2424 11010KT 6SM -RA OVC080
     FM240300 14014G21KT P6SM VCSH BKN100
     FM241800 16011KT 4SM -SHRA BR VCTS OVC030CB=

USA.gov is the U.S. government's official web portal to all federal, state and local government web resources and services.